Time;durP1;ratioP1;P1;durP2;ratioP2;P2;SDS_P1;SDS_P2;PMS_P1;PMS_P2;Temp;Humidity;BMP_temperature;BMP_pressure;BME280_temperature;BME280_humidity;BME280_pressure;Samples;Min_cycle;Max_cycle;Signal;HPM_P1;HPM_P2
2021/08/23 00:00:44;;;;;;;10.43;8.27;;;;;;;16.99;79.25;99870.75;4972161;28;20067;-67
2021/08/23 00:03:10;;;;;;;10.43;9.40;;;;;;;16.98;79.38;99869.03;4972330;28;20094;-67
2021/08/23 00:05:35;;;;;;;8.88;7.93;;;;;;;16.99;79.81;99869.91;4971897;28;20027;-67
2021/08/23 00:08:00;;;;;;;9.93;8.50;;;;;;;17.02;79.44;99875.00;4971619;28;20058;-67
2021/08/23 00:10:26;;;;;;;8.30;7.00;;;;;;;17.04;79.92;99868.59;4971561;28;20050;-68
2021/08/23 00:12:51;;;;;;;9.88;8.88;;;;;;;17.11;80.29;99868.97;4971395;28;20051;-65
2021/08/23 00:15:17;;;;;;;11.70;10.23;;;;;;;17.22;79.78;99870.81;4970635;28;20058;-65
2021/08/23 00:17:43;;;;;;;9.88;8.82;;;;;;;17.17;79.41;99871.16;4971695;28;20085;-66
2021/08/23 00:20:13;;;;;;;9.38;8.45;;;;;;;17.11;79.63;99879.63;4972292;28;20034;-67
2021/08/23 00:22:47;;;;;;;10.63;9.52;;;;;;;17.12;80.13;99873.34;4971784;28;20110;-67
2021/08/23 00:25:12;;;;;;;10.05;8.93;;;;;;;17.08;79.68;99871.84;4971444;28;20153;-67
2021/08/23 00:27:38;;;;;;;10.07;9.10;;;;;;;17.05;80.24;99866.75;4970523;28;20109;-65
2021/08/23 00:30:05;;;;;;;11.52;10.32;;;;;;;16.99;80.74;99864.56;4971357;28;20431;-66
2021/08/23 00:32:30;;;;;;;11.45;10.27;;;;;;;16.95;80.79;99863.94;4970234;28;20050;-67
2021/08/23 00:34:57;;;;;;;10.95;9.82;;;;;;;16.95;80.99;99866.59;4971390;28;20415;-68
2021/08/23 00:37:23;;;;;;;10.57;9.55;;;;;;;16.93;80.94;99868.53;4970862;28;20038;-67
2021/08/23 00:39:48;;;;;;;11.23;9.55;;;;;;;16.93;81.28;99864.06;4971491;28;20030;-68
2021/08/23 00:42:13;;;;;;;12.05;10.23;;;;;;;16.94;81.17;99862.25;4971687;28;20046;-68
2021/08/23 00:44:40;;;;;;;10.52;9.48;;;;;;;16.89;81.29;99859.94;4970723;28;20039;-68
2021/08/23 00:47:06;;;;;;;10.55;9.45;;;;;;;16.84;81.92;99855.91;4972281;28;20399;-68
2021/08/23 00:49:33;;;;;;;12.40;11.10;;;;;;;16.78;81.60;99862.53;4976663;28;20041;-68
2021/08/23 00:51:59;;;;;;;8.52;7.65;;;;;;;16.77;82.08;99858.13;4975670;28;20031;-68
2021/08/23 00:54:25;;;;;;;9.60;7.45;;;;;;;16.76;82.16;99856.47;4974336;28;20402;-68
2021/08/23 00:56:50;;;;;;;9.05;8.15;;;;;;;16.79;82.51;99855.41;4971685;28;20031;-68
2021/08/23 00:59:18;;;;;;;8.43;7.55;;;;;;;16.81;82.54;99854.34;4971577;28;20038;-67
2021/08/23 01:01:59;;;;;;;7.82;7.00;;;;;;;16.81;82.33;99864.97;4944794;28;20122;-67
2021/08/23 01:04:49;;;;;;;6.53;5.75;;;;;;;16.81;82.15;99869.44;4971033;28;20569;-68
2021/08/23 01:07:17;;;;;;;8.05;6.18;;;;;;;16.85;82.59;99862.94;4970379;28;20046;-68
2021/08/23 01:09:49;;;;;;;6.75;6.05;;;;;;;16.89;82.43;99862.59;4976520;28;20114;-68
2021/08/23 01:12:14;;;;;;;6.15;5.10;;;;;;;16.91;82.58;99865.16;4971076;28;20031;-68
2021/08/23 01:14:40;;;;;;;5.65;5.05;;;;;;;16.93;82.53;99871.19;4970917;28;20399;-68
2021/08/23 01:17:06;;;;;;;7.65;4.90;;;;;;;16.95;82.58;99870.09;4970736;28;20395;-67
2021/08/23 01:19:33;;;;;;;6.30;5.07;;;;;;;16.97;82.26;99869.16;4970452;28;20826;-67
2021/08/23 01:22:04;;;;;;;6.50;4.70;;;;;;;17.02;82.32;99870.50;4970529;28;20387;-68
2021/08/23 01:24:33;;;;;;;4.70;3.40;;;;;;;17.04;82.51;99873.06;4970966;28;20031;-68
2021/08/23 01:27:03;;;;;;;4.72;4.22;;;;;;;17.05;82.04;99872.09;4970121;28;20041;-68
2021/08/23 01:29:35;;;;;;;6.38;5.03;;;;;;;17.07;82.04;99868.34;4969289;28;20030;-68
2021/08/23 01:32:22;;;;;;;6.90;6.18;;;;;;;17.11;81.79;99867.16;4973067;28;20030;-68
2021/08/23 01:34:49;;;;;;;8.90;5.25;;;;;;;17.11;82.02;99868.97;4989903;28;20030;-68
2021/08/23 01:37:16;;;;;;;7.78;6.88;;;;;;;17.14;82.54;99874.91;4989528;28;20035;-68
2021/08/23 01:39:42;;;;;;;7.53;6.70;;;;;;;17.16;82.27;99866.81;4989669;28;20031;-68
2021/08/23 01:42:08;;;;;;;6.82;6.07;;;;;;;17.16;82.20;99865.00;4989301;28;20491;-68
2021/08/23 01:44:33;;;;;;;8.82;6.43;;;;;;;17.21;82.16;99869.97;4990776;28;20047;-68
2021/08/23 01:46:59;;;;;;;9.90;6.75;;;;;;;17.24;82.46;99875.06;4990472;28;20040;-67
2021/08/23 01:49:24;;;;;;;9.27;7.63;;;;;;;17.25;82.37;99871.44;4991362;28;20038;-68
2021/08/23 01:51:49;;;;;;;8.63;7.72;;;;;;;17.25;82.37;99871.44;4993686;28;20054;-68
2021/08/23 01:54:15;;;;;;;9.48;7.25;;;;;;;17.25;82.81;99873.25;4994000;28;20038;-68
2021/08/23 01:56:42;;;;;;;9.70;8.70;;;;;;;17.24;82.58;99869.75;4994048;28;20509;-68
2021/08/23 01:59:07;;;;;;;9.10;8.13;;;;;;;17.23;82.70;99867.19;4994150;28;20038;-68
2021/08/23 02:01:34;;;;;;;7.70;6.85;;;;;;;17.22;82.64;99871.66;4994759;28;20034;-68
2021/08/23 02:04:00;;;;;;;8.85;7.35;;;;;;;17.21;83.24;99867.31;4994236;28;20435;-67
2021/08/23 02:06:25;;;;;;;10.10;8.43;;;;;;;17.21;82.89;99877.97;4993743;28;20110;-67
2021/08/23 02:08:51;;;;;;;11.10;8.32;;;;;;;17.21;83.20;99877.97;4993808;28;20030;-68
2021/08/23 02:11:17;;;;;;;12.73;8.57;;;;;;;17.20;83.59;99868.28;4992892;28;20038;-68
2021/08/23 02:13:42;;;;;;;10.52;8.48;;;;;;;17.19;83.29;99877.25;4993461;28;20044;-69
2021/08/23 02:16:08;;;;;;;13.25;11.15;;;;;;;17.14;83.82;99880.25;4993486;28;20036;-68
2021/08/23 02:18:34;;;;;;;10.73;9.60;;;;;;;17.08;84.25;99877.19;4993163;28;20482;-67
2021/08/23 02:20:59;;;;;;;12.02;9.57;;;;;;;17.04;84.79;99871.25;4992206;28;20040;-66
2021/08/23 02:23:25;;;;;;;15.68;12.40;;;;;;;17.01;84.77;99874.16;4985286;28;20046;-67
2021/08/23 02:25:51;;;;;;;15.68;13.10;;;;;;;16.99;85.38;99878.72;4992950;28;20038;-66
2021/08/23 02:28:16;;;;;;;19.73;15.55;;;;;;;16.94;85.71;99878.22;4993106;28;20133;-67
2021/08/23 02:30:42;;;;;;;16.25;11.95;;;;;;;16.90;85.62;99874.94;4992840;28;20117;-66
2021/08/23 02:33:07;;;;;;;13.13;10.02;;;;;;;16.86;86.19;99886.78;4993447;28;20507;-66
2021/08/23 02:35:32;;;;;;;11.98;9.68;;;;;;;16.84;86.23;99886.03;4991658;28;20450;-67
2021/08/23 02:37:58;;;;;;;10.25;8.70;;;;;;;16.81;86.85;99883.63;4993014;28;20068;-67
2021/08/23 02:40:23;;;;;;;9.57;8.30;;;;;;;16.80;87.15;99887.22;4992903;28;20057;-66
2021/08/23 02:42:49;;;;;;;12.73;9.45;;;;;;;16.78;87.42;99877.63;4993025;28;20053;-66
2021/08/23 02:45:14;;;;;;;10.45;9.13;;;;;;;16.78;87.60;99886.47;4992830;28;20400;-67
2021/08/23 02:47:40;;;;;;;9.55;7.22;;;;;;;16.78;87.17;99888.28;4992066;28;20117;-66
2021/08/23 02:50:08;;;;;;;9.73;8.73;;;;;;;16.79;87.45;99890.03;4992404;28;20042;-66
2021/08/23 02:52:35;;;;;;;6.88;6.18;;;;;;;16.80;87.42;99897.88;4992642;28;20046;-66
2021/08/23 02:55:02;;;;;;;9.60;8.60;;;;;;;16.82;87.49;99893.28;4992522;28;20026;-67
2021/08/23 02:57:27;;;;;;;10.88;8.18;;;;;;;16.85;87.63;99897.53;4992249;28;20037;-66
2021/08/23 02:59:52;;;;;;;15.00;11.70;;;;;;;16.86;87.18;99896.56;4992554;28;20406;-67
2021/08/23 03:02:18;;;;;;;17.52;15.02;;;;;;;16.86;87.65;99900.09;4991147;28;20038;-66
2021/08/23 03:04:43;;;;;;;17.08;13.60;;;;;;;16.86;87.27;99897.44;4992516;28;20570;-66
2021/08/23 03:07:08;;;;;;;18.80;14.50;;;;;;;16.87;87.33;99893.81;4992068;28;20046;-66
2021/08/23 03:09:34;;;;;;;17.25;15.45;;;;;;;16.87;87.32;99901.78;4992452;28;20538;-66
2021/08/23 03:11:59;;;;;;;19.67;17.63;;;;;;;16.86;87.11;99899.22;4991076;28;20533;-66
2021/08/23 03:14:25;;;;;;;24.90;19.33;;;;;;;16.86;87.10;99902.75;4992387;28;20117;-66
2021/08/23 03:16:50;;;;;;;20.50;18.15;;;;;;;16.88;87.92;99899.97;4992968;28;20449;-66
2021/08/23 03:19:15;;;;;;;22.77;16.98;;;;;;;16.89;87.67;99907.84;5009663;28;20045;-67
2021/08/23 03:21:41;;;;;;;22.27;18.60;;;;;;;16.91;87.84;99913.09;5011674;28;20445;-66
2021/08/23 03:24:06;;;;;;;25.08;20.83;;;;;;;16.91;87.24;99910.41;5011879;28;20030;-66
2021/08/23 03:26:32;;;;;;;26.00;20.42;;;;;;;16.92;87.65;99909.44;5011460;28;20034;-66
2021/08/23 03:28:57;;;;;;;27.77;21.05;;;;;;;16.93;87.74;99913.78;5011610;28;20034;-67
2021/08/23 03:31:22;;;;;;;22.90;18.05;;;;;;;16.94;87.46;99920.84;5011170;28;20061;-67
2021/08/23 03:33:48;;;;;;;21.20;19.02;;;;;;;16.95;87.63;99912.72;5011362;28;20053;-67
2021/08/23 03:36:13;;;;;;;21.35;15.80;;;;;;;16.96;87.57;99913.59;5008662;28;20084;-67
2021/08/23 03:38:39;;;;;;;20.58;17.25;;;;;;;16.97;87.43;99911.78;5011333;28;20074;-67
2021/08/23 03:41:04;;;;;;;24.42;17.85;;;;;;;16.98;87.40;99916.97;5012115;28;20038;-67
2021/08/23 03:43:29;;;;;;;19.92;17.73;;;;;;;17.01;87.39;99914.09;5011911;28;20033;-67
2021/08/23 03:45:55;;;;;;;26.08;19.88;;;;;;;17.01;87.21;99922.09;5010765;28;20034;-68
2021/08/23 03:48:20;;;;;;;28.10;22.88;;;;;;;17.00;87.40;99916.88;5011417;28;20073;-67
2021/08/23 03:50:46;;;;;;;22.33;17.48;;;;;;;16.99;87.52;99910.69;5011183;28;20046;-67
2021/08/23 03:53:11;;;;;;;23.40;18.40;;;;;;;17.03;87.26;99911.31;5011436;28;20088;-67
2021/08/23 03:55:36;;;;;;;19.20;16.48;;;;;;;17.02;87.15;99910.47;5011444;28;20034;-67
2021/08/23 03:58:04;;;;;;;26.88;21.88;;;;;;;17.02;86.95;99921.13;5011085;28;20061;-67
2021/08/23 04:00:29;;;;;;;33.78;21.77;;;;;;;17.01;87.16;99916.75;5011002;28;20030;-68
2021/08/23 04:02:55;;;;;;;22.63;18.27;;;;;;;17.02;87.21;99925.59;5010580;28;20144;-67
2021/08/23 04:05:20;;;;;;;16.52;14.70;;;;;;;17.04;87.61;99932.50;5010743;28;20095;-66
2021/08/23 04:07:45;;;;;;;28.38;21.50;;;;;;;17.06;87.42;99932.41;5010924;28;20100;-67
2021/08/23 04:10:11;;;;;;;33.22;24.00;;;;;;;17.06;87.38;99933.25;5010819;28;20092;-67
2021/08/23 04:12:36;;;;;;;18.52;14.57;;;;;;;17.08;87.43;99941.13;5012499;28;20092;-67
2021/08/23 04:15:03;;;;;;;40.40;25.08;;;;;;;17.05;87.12;99939.53;5012065;28;20080;-68
2021/08/23 04:17:28;;;;;;;19.10;14.82;;;;;;;17.06;87.65;99945.72;5010690;28;20038;-68
2021/08/23 04:19:53;;;;;;;15.50;13.88;;;;;;;17.02;86.92;99946.91;5010195;28;20096;-68
2021/08/23 04:22:19;;;;;;;16.38;13.10;;;;;;;17.00;87.47;99952.34;5010665;28;20450;-68
2021/08/23 04:24:44;;;;;;;16.10;14.52;;;;;;;16.93;86.87;99948.41;5010404;28;20414;-69
2021/08/23 04:27:09;;;;;;;12.63;11.43;;;;;;;16.94;86.80;99958.13;5010292;28;20033;-68
2021/08/23 04:29:35;;;;;;;17.35;15.55;;;;;;;16.97;87.85;99954.38;5010840;28;20057;-69
2021/08/23 04:32:00;;;;;;;17.15;14.35;;;;;;;17.03;87.37;99961.91;5010555;28;20034;-68
2021/08/23 04:34:25;;;;;;;15.43;13.82;;;;;;;17.01;86.71;99953.22;5009898;28;20509;-67
2021/08/23 04:36:51;;;;;;;16.83;15.15;;;;;;;16.99;87.42;99960.47;5009951;28;20034;-69
2021/08/23 04:39:16;;;;;;;16.92;15.23;;;;;;;16.94;87.35;99971.44;5010191;28;20034;-68
2021/08/23 04:41:42;;;;;;;19.33;17.40;;;;;;;16.91;87.33;99972.50;5010465;28;20084;-67
2021/08/23 04:44:08;;;;;;;19.52;15.88;;;;;;;16.91;87.55;99971.66;5010255;28;20087;-67
2021/08/23 04:46:34;;;;;;;15.52;13.98;;;;;;;16.94;87.36;99969.63;5009854;28;20375;-68
2021/08/23 04:49:00;;;;;;;17.98;16.17;;;;;;;16.92;87.58;99974.22;5010025;28;20088;-67
2021/08/23 04:51:27;;;;;;;15.80;14.20;;;;;;;16.95;87.91;99981.97;5009400;28;20140;-67
2021/08/23 04:53:52;;;;;;;16.25;14.60;;;;;;;16.98;87.58;99980.03;5010290;28;20434;-67
2021/08/23 04:56:17;;;;;;;18.38;16.55;;;;;;;16.96;87.53;99977.50;5009499;28;20034;-67
2021/08/23 04:58:43;;;;;;;18.30;16.08;;;;;;;16.95;87.70;99981.13;5010075;28;20030;-67
2021/08/23 05:01:10;;;;;;;17.75;15.95;;;;;;;16.93;88.03;99991.03;5010074;28;20053;-67
2021/08/23 05:03:35;;;;;;;21.83;18.83;;;;;;;16.90;87.88;99989.44;5010621;28;20398;-67
2021/08/23 05:06:01;;;;;;;19.05;15.75;;;;;;;16.87;88.34;99995.00;5011340;28;20026;-67
2021/08/23 05:08:26;;;;;;;17.25;15.40;;;;;;;16.86;88.38;99990.63;5010292;28;20154;-67
2021/08/23 05:10:51;;;;;;;26.13;20.33;;;;;;;16.89;88.79;99998.41;5009923;28;20044;-67
2021/08/23 05:13:17;;;;;;;25.95;19.13;;;;;;;16.87;88.56;99997.66;5009867;28;20077;-67
2021/08/23 05:15:42;;;;;;;21.45;17.27;;;;;;;16.88;88.30;100007.38;5010007;28;20042;-68
2021/08/23 05:18:08;;;;;;;23.85;19.33;;;;;;;16.86;87.93;100006.63;5010128;28;20026;-67
2021/08/23 05:20:33;;;;;;;25.08;17.05;;;;;;;16.83;88.07;100009.47;5007022;28;20052;-69
2021/08/23 05:22:58;;;;;;;23.90;18.13;;;;;;;16.84;88.19;100011.19;5009915;28;20403;-68
2021/08/23 05:25:24;;;;;;;24.25;17.98;;;;;;;16.84;88.30;100010.34;5008886;28;20044;-69
2021/08/23 05:27:49;;;;;;;26.60;20.15;;;;;;;16.86;87.91;100019.94;5009414;28;20155;-67
2021/08/23 05:30:15;;;;;;;25.23;19.17;;;;;;;16.88;87.67;100020.69;5009766;28;20100;-68
2021/08/23 05:32:40;;;;;;;20.83;17.65;;;;;;;16.87;88.12;100026.09;5009531;28;20037;-66
2021/08/23 05:35:07;;;;;;;32.25;23.25;;;;;;;16.84;87.33;100027.19;5010203;28;20037;-67
2021/08/23 05:37:32;;;;;;;33.00;22.05;;;;;;;16.80;88.29;100030.16;5007949;28;20122;-66
2021/08/23 05:39:58;;;;;;;40.00;23.83;;;;;;;16.74;87.79;100028.75;5006132;28;20503;-67
2021/08/23 05:42:23;;;;;;;31.48;21.58;;;;;;;16.73;88.49;100022.56;5009429;28;20083;-68
2021/08/23 05:44:52;;;;;;;34.15;23.13;;;;;;;16.74;88.20;100032.28;5009580;28;20038;-67
2021/08/23 05:47:18;;;;;;;29.23;20.55;;;;;;;16.80;88.46;100025.69;5009399;28;20121;-67
2021/08/23 05:49:43;;;;;;;30.63;20.67;;;;;;;16.82;88.13;100039.75;5009139;28;20517;-67
2021/08/23 05:52:08;;;;;;;27.38;19.73;;;;;;;16.84;87.83;100040.50;5009782;28;20121;-66
2021/08/23 05:54:34;;;;;;;28.63;21.02;;;;;;;16.88;87.61;100047.31;5009738;28;20137;-67
2021/08/23 05:57:00;;;;;;;29.27;21.08;;;;;;;16.88;87.55;100049.97;5008947;28;20041;-69
2021/08/23 05:59:25;;;;;;;26.75;18.25;;;;;;;16.91;87.05;100051.56;5009478;28;20175;-69
2021/08/23 06:01:54;;;;;;;26.17;19.85;;;;;;;16.94;87.19;100054.00;5009670;28;20044;-69
2021/08/23 06:04:20;;;;;;;26.20;18.67;;;;;;;16.94;87.25;100064.66;5009473;28;20057;-69
2021/08/23 06:06:46;;;;;;;25.80;19.58;;;;;;;16.90;86.98;100061.34;5009277;28;20041;-68
2021/08/23 06:09:11;;;;;;;26.65;20.05;;;;;;;16.87;87.45;100072.22;5009422;28;20037;-69
2021/08/23 06:11:36;;;;;;;30.55;20.80;;;;;;;16.88;87.32;100075.72;5009562;28;20129;-68
2021/08/23 06:14:02;;;;;;;23.98;17.50;;;;;;;16.86;86.67;100070.53;5009429;28;20037;-68
2021/08/23 06:16:27;;;;;;;34.10;23.25;;;;;;;16.85;86.40;100074.13;5009485;28;20034;-69
2021/08/23 06:18:52;;;;;;;26.50;20.80;;;;;;;16.87;86.58;100079.38;5009637;28;20061;-68
2021/08/23 06:21:18;;;;;;;24.75;17.50;;;;;;;16.90;87.12;100079.97;5009934;28;20057;-68
2021/08/23 06:23:43;;;;;;;29.45;19.15;;;;;;;16.94;86.44;100081.47;5009962;28;20125;-69
2021/08/23 06:26:08;;;;;;;29.80;23.65;;;;;;;16.95;86.15;100085.84;5001161;28;20089;-67
2021/08/23 06:28:34;;;;;;;30.95;21.48;;;;;;;16.95;86.35;100080.50;4998371;28;20033;-68
2021/08/23 06:30:59;;;;;;;34.75;26.40;;;;;;;16.89;86.25;100086.28;5009165;28;20551;-68
2021/08/23 06:33:24;;;;;;;28.90;22.92;;;;;;;16.93;85.92;100086.91;5001422;28;20070;-67
2021/08/23 06:35:50;;;;;;;35.95;25.40;;;;;;;17.02;85.44;100090.75;5001141;28;20038;-68
2021/08/23 06:38:15;;;;;;;40.78;28.20;;;;;;;17.01;85.24;100086.38;5012422;28;20049;-67
2021/08/23 06:40:41;;;;;;;22.55;20.02;;;;;;;17.14;84.89;100089.88;5012471;28;20494;-68
2021/08/23 06:43:06;;;;;;;33.40;27.20;;;;;;;17.24;84.46;100098.06;5001587;28;20042;-68
2021/08/23 06:45:31;;;;;;;28.70;24.75;;;;;;;17.26;83.79;100093.47;4997296;28;20066;-66
2021/08/23 06:47:57;;;;;;;29.73;24.98;;;;;;;17.33;83.52;100103.56;4989866;28;20122;-67
2021/08/23 06:50:22;;;;;;;30.55;27.35;;;;;;;17.40;83.35;100111.97;4987250;28;20177;-69
2021/08/23 06:52:47;;;;;;;38.28;27.23;;;;;;;17.47;82.95;100118.53;4987462;28;20162;-69
2021/08/23 06:55:13;;;;;;;31.77;26.65;;;;;;;17.42;82.62;100115.38;4987097;28;20061;-69
2021/08/23 06:57:38;;;;;;;30.38;26.10;;;;;;;17.33;82.43;100124.88;4987327;28;20041;-68
2021/08/23 07:00:05;;;;;;;37.22;29.08;;;;;;;17.33;82.48;100121.38;4988952;28;20546;-69
2021/08/23 07:02:30;;;;;;;32.10;26.45;;;;;;;17.39;82.37;100124.44;4994133;28;20042;-70
2021/08/23 07:04:56;;;;;;;33.42;25.52;;;;;;;17.48;82.53;100128.25;5005965;28;20054;-69
2021/08/23 07:07:21;;;;;;;31.23;26.48;;;;;;;17.50;81.94;100133.47;4998045;28;20366;-69
2021/08/23 07:09:46;;;;;;;28.20;24.55;;;;;;;17.49;81.76;100132.63;5006639;28;20034;-69
2021/08/23 07:12:12;;;;;;;28.90;25.73;;;;;;;17.47;81.38;100139.88;5006610;28;20040;-69
2021/08/23 07:14:37;;;;;;;30.65;26.58;;;;;;;17.49;81.28;100139.78;4999021;28;20046;-69
2021/08/23 07:17:06;;;;;;;33.95;29.88;;;;;;;17.49;80.23;100139.78;4986950;28;20390;-69
2021/08/23 07:19:32;;;;;;;30.67;27.33;;;;;;;17.48;80.29;100138.91;4985615;28;20046;-69
2021/08/23 07:21:57;;;;;;;30.38;24.80;;;;;;;17.55;81.10;100150.84;4986598;28;20038;-69
2021/08/23 07:24:23;;;;;;;30.10;26.80;;;;;;;17.50;81.14;100155.66;4986730;28;20038;-69
2021/08/23 07:26:48;;;;;;;31.20;27.00;;;;;;;17.42;80.91;100142.00;4986372;28;20069;-70
2021/08/23 07:29:14;;;;;;;33.17;29.40;;;;;;;17.43;81.18;100149.06;4986287;28;20041;-70
2021/08/23 07:31:40;;;;;;;29.95;24.65;;;;;;;17.41;80.79;100142.16;4985195;28;20652;-68
2021/08/23 07:34:06;;;;;;;32.25;26.20;;;;;;;17.37;80.38;100149.50;4963053;28;20050;-69
2021/08/23 07:36:31;;;;;;;29.73;26.23;;;;;;;17.36;80.94;100143.31;4968769;28;20391;-70
2021/08/23 07:38:56;;;;;;;29.10;23.95;;;;;;;17.35;81.14;100146.97;4979381;28;20042;-70
2021/08/23 07:41:22;;;;;;;33.95;30.38;;;;;;;17.35;80.23;100146.97;4986549;28;20042;-70
2021/08/23 07:43:47;;;;;;;33.38;27.17;;;;;;;17.37;80.84;100142.34;4987653;28;20141;-69
2021/08/23 07:46:13;;;;;;;26.60;23.80;;;;;;;17.47;79.66;100144.34;4986479;28;20034;-69
2021/08/23 07:48:38;;;;;;;31.70;26.95;;;;;;;17.52;79.99;100143.06;5006710;28;20033;-69
2021/08/23 07:51:04;;;;;;;30.58;27.27;;;;;;;17.58;78.91;100150.63;5007353;28;20561;-70
2021/08/23 07:53:29;;;;;;;26.63;23.70;;;;;;;17.69;79.15;100152.50;5008168;28;21457;-70
2021/08/23 07:55:55;;;;;;;32.10;26.92;;;;;;;17.72;77.31;100154.97;5007044;28;20037;-71
2021/08/23 07:58:20;;;;;;;32.72;25.83;;;;;;;17.82;77.78;100157.84;4997222;28;20038;-71
2021/08/23 08:00:46;;;;;;;29.05;25.90;;;;;;;18.05;77.29;100157.94;5007879;28;20034;-71
2021/08/23 08:03:11;;;;;;;27.10;23.10;;;;;;;18.23;76.97;100157.41;5005804;28;20388;-71
2021/08/23 08:05:39;;;;;;;25.33;22.58;;;;;;;18.36;75.89;100165.34;5007164;28;20065;-71
2021/08/23 08:08:07;;;;;;;29.33;26.33;;;;;;;18.23;74.85;100167.22;5007720;28;20506;-70
2021/08/23 08:10:33;;;;;;;25.92;22.05;;;;;;;18.26;75.87;100166.16;5005550;28;20046;-71
2021/08/23 08:12:59;;;;;;;30.83;26.30;;;;;;;18.31;75.69;100172.84;5004091;28;20046;-69
2021/08/23 08:15:24;;;;;;;27.38;24.48;;;;;;;18.34;75.91;100172.63;4999591;28;20027;-70
2021/08/23 08:17:49;;;;;;;26.65;23.58;;;;;;;18.23;75.45;100178.75;4984814;28;20030;-69
2021/08/23 08:20:15;;;;;;;27.08;22.50;;;;;;;18.28;74.73;100173.06;4985964;28;20042;-69
2021/08/23 08:22:41;;;;;;;28.95;25.55;;;;;;;18.33;75.48;100183.41;4993902;28;20073;-68
2021/08/23 08:25:07;;;;;;;28.50;25.02;;;;;;;18.31;74.58;100177.31;5003962;28;20030;-70
2021/08/23 08:27:34;;;;;;;31.77;27.08;;;;;;;18.27;74.50;100187.41;5004870;28;20041;-69
2021/08/23 08:29:59;;;;;;;27.67;22.75;;;;;;;18.30;75.81;100189.81;5004812;28;20465;-69
2021/08/23 08:32:24;;;;;;;29.27;24.33;;;;;;;18.29;75.07;100192.63;5004908;28;20133;-70
2021/08/23 08:34:50;;;;;;;32.20;26.08;;;;;;;18.28;75.30;100193.56;5003121;28;20057;-69
2021/08/23 08:37:15;;;;;;;28.88;24.60;;;;;;;18.27;75.59;100197.22;5004364;28;20049;-69
2021/08/23 08:39:41;;;;;;;43.10;30.27;;;;;;;18.28;76.00;100194.41;4996213;28;20030;-69
2021/08/23 08:42:06;;;;;;;27.65;23.05;;;;;;;18.32;75.80;100197.72;5005522;28;20038;-69
2021/08/23 08:44:33;;;;;;;32.92;26.15;;;;;;;18.33;75.08;100199.41;5004570;28;20142;-70
2021/08/23 08:46:59;;;;;;;32.67;26.20;;;;;;;18.36;75.74;100207.19;5010125;28;20037;-69
2021/08/23 08:49:26;;;;;;;27.38;23.73;;;;;;;18.36;74.83;100207.19;5004846;28;20052;-69
2021/08/23 08:51:52;;;;;;;30.35;24.67;;;;;;;18.40;75.76;100208.66;5004590;28;20041;-70
2021/08/23 08:54:18;;;;;;;23.67;19.75;;;;;;;18.49;75.18;100212.47;4993771;28;20046;-70
2021/08/23 08:56:43;;;;;;;29.98;24.00;;;;;;;18.56;75.70;100219.91;4999010;28;20042;-70
2021/08/23 08:59:08;;;;;;;30.05;25.20;;;;;;;18.51;75.07;100210.53;4987065;28;20038;-72
2021/08/23 09:01:34;;;;;;;27.83;22.52;;;;;;;18.49;75.36;100217.81;4984874;28;20058;-69
2021/08/23 09:04:04;;;;;;;26.27;23.35;;;;;;;18.48;75.43;100214.28;4984558;28;20033;-69
2021/08/23 09:06:40;;;;;;;30.17;24.88;;;;;;;18.52;75.35;100213.09;4976639;28;20065;-69
2021/08/23 09:09:13;;;;;;;35.10;27.98;;;;;;;18.55;74.92;100214.69;4975673;28;20038;-70
2021/08/23 09:11:42;;;;;;;43.90;31.17;;;;;;;18.55;75.04;100220.84;4984842;28;20043;-69
2021/08/23 09:14:08;;;;;;;32.08;26.63;;;;;;;18.56;74.90;100216.41;4982459;28;20042;-69
2021/08/23 09:16:39;;;;;;;42.22;33.55;;;;;;;18.62;74.92;100224.78;4981116;28;20899;-70
2021/08/23 09:19:08;;;;;;;43.03;30.55;;;;;;;18.53;75.27;100220.13;4977247;28;20034;-69
2021/08/23 09:21:36;;;;;;;39.15;30.38;;;;;;;18.47;75.60;100228.59;5002277;28;20042;-70
2021/08/23 09:24:05;;;;;;;41.50;32.80;;;;;;;18.41;76.33;100227.25;5004160;28;20046;-71
2021/08/23 09:26:34;;;;;;;38.55;31.50;;;;;;;18.36;76.89;100226.75;5000895;28;21571;-69
2021/08/23 09:29:06;;;;;;;35.45;29.15;;;;;;;18.38;77.62;100237.28;5012503;28;20030;-69
2021/08/23 09:31:38;;;;;;;46.00;35.63;;;;;;;18.37;77.30;100238.28;5004083;28;20045;-69
2021/08/23 09:34:06;;;;;;;46.72;30.85;;;;;;;18.38;76.67;100240.81;5004078;28;20579;-69
2021/08/23 09:36:32;;;;;;;43.22;31.85;;;;;;;18.47;76.23;100241.97;5004019;28;20033;-70
2021/08/23 09:39:00;;;;;;;41.55;34.17;;;;;;;18.67;75.39;100248.47;5004244;28;20130;-69
2021/08/23 09:41:25;;;;;;;43.83;33.97;;;;;;;18.74;74.59;100241.69;5003136;28;20049;-69
2021/08/23 09:44:02;;;;;;;39.67;32.92;;;;;;;18.92;74.43;100249.28;5002381;28;20034;-70
2021/08/23 09:46:28;;;;;;;51.85;37.80;;;;;;;19.05;74.19;100248.25;5004000;28;20050;-71
2021/08/23 09:48:54;;;;;;;49.20;41.20;;;;;;;18.96;73.47;100251.63;4996661;28;20026;-68
2021/08/23 09:51:47;;;;;;;47.13;37.33;;;;;;;18.96;73.40;100253.44;5017872;28;20476;-70
2021/08/23 09:54:18;;;;;;;48.33;39.47;;;;;;;18.77;74.16;100254.00;5002659;28;20030;-71
2021/08/23 09:56:46;;;;;;;51.88;42.47;;;;;;;18.65;74.82;100247.72;5003938;28;20041;-70
2021/08/23 09:59:19;;;;;;;47.58;37.72;;;;;;;18.57;75.86;100255.47;4985869;28;20027;-70
2021/08/23 10:01:46;;;;;;;42.30;36.45;;;;;;;18.61;75.74;100257.78;4983740;28;20038;-70
2021/08/23 10:04:13;;;;;;;36.45;30.65;;;;;;;18.57;75.33;100263.47;4985160;28;20080;-71
2021/08/23 10:06:40;;;;;;;37.90;32.25;;;;;;;18.49;74.40;100266.72;4989332;28;20034;-68
2021/08/23 10:09:07;;;;;;;56.65;31.35;;;;;;;18.41;75.81;100263.75;5003740;28;20053;-71
2021/08/23 10:11:33;;;;;;;36.60;30.42;;;;;;;18.38;75.49;100264.00;5004566;28;20732;-71
2021/08/23 10:14:00;;;;;;;37.00;31.15;;;;;;;18.39;75.58;100263.88;4997069;28;20038;-70
2021/08/23 10:16:27;;;;;;;38.88;32.47;;;;;;;18.43;75.32;100267.16;4987251;28;20034;-69
2021/08/23 10:18:53;;;;;;;37.55;32.38;;;;;;;18.43;76.06;100261.81;4987781;28;20061;-71
2021/08/23 10:21:20;;;;;;;42.45;33.03;;;;;;;18.31;75.82;100263.63;4988241;28;20499;-69
2021/08/23 10:23:51;;;;;;;38.92;32.72;;;;;;;18.28;76.97;100268.31;4986358;28;20031;-70
2021/08/23 10:26:17;;;;;;;32.95;27.85;;;;;;;18.18;76.61;100274.31;4987995;28;20074;-68
2021/08/23 10:28:52;;;;;;;28.00;23.85;;;;;;;18.15;76.03;100274.53;4988048;28;20064;-70
2021/08/23 10:31:20;;;;;;;31.15;25.30;;;;;;;18.21;76.20;100281.25;4987411;28;20146;-69
2021/08/23 10:33:47;;;;;;;25.75;21.27;;;;;;;18.31;76.10;100273.41;4987454;28;20136;-69
2021/08/23 10:36:17;;;;;;;26.65;20.48;;;;;;;18.37;75.59;100276.50;4987753;28;20038;-68
2021/08/23 10:38:45;;;;;;;25.13;21.23;;;;;;;18.45;74.87;100275.91;4987600;28;20034;-69
2021/08/23 10:41:24;;;;;;;24.15;20.88;;;;;;;18.56;74.92;100281.31;4987799;28;20057;-69
2021/08/23 10:43:58;;;;;;;22.65;17.20;;;;;;;18.66;75.14;100274.31;4979400;28;20046;-70
2021/08/23 10:46:28;;;;;;;25.20;20.05;;;;;;;18.59;75.21;100281.09;4987279;28;20068;-70
2021/08/23 10:48:57;;;;;;;20.67;18.00;;;;;;;18.57;75.73;100279.50;4986767;28;20033;-69
2021/08/23 10:51:27;;;;;;;31.70;25.08;;;;;;;18.58;76.03;100282.06;4980126;28;20387;-69
2021/08/23 10:53:52;;;;;;;19.80;16.52;;;;;;;18.58;75.74;100284.75;4985974;28;20041;-70
2021/08/23 10:56:19;;;;;;;17.75;14.23;;;;;;;18.59;76.19;100285.59;4978211;28;20426;-69
2021/08/23 10:58:46;;;;;;;18.45;15.18;;;;;;;18.58;76.10;100281.19;4986013;28;20038;-71
2021/08/23 11:01:22;;;;;;;17.20;14.38;;;;;;;18.62;75.71;100277.34;4986757;28;20038;-68
2021/08/23 11:04:04;;;;;;;20.20;15.18;;;;;;;18.73;75.85;100271.19;4987507;28;20061;-68
2021/08/23 11:06:32;;;;;;;17.80;14.30;;;;;;;18.76;75.30;100273.66;4988829;28;20130;-69
2021/08/23 11:09:12;;;;;;;15.82;13.90;;;;;;;18.81;74.86;100274.16;5004824;28;20535;-70
2021/08/23 11:11:39;;;;;;;19.58;14.77;;;;;;;18.84;75.27;100269.44;5006504;28;20052;-69
2021/08/23 11:14:18;;;;;;;19.45;13.82;;;;;;;18.83;73.86;100270.41;5006466;28;20049;-69